createdAt,value
2016-10-07T00:00:46.569Z,92.6
2016-10-07T00:01:47.058Z,92.6
2016-10-07T00:02:47.002Z,92.69
2016-10-07T00:03:47.352Z,92.79
2016-10-07T00:04:46.393Z,92.69
2016-10-07T00:05:46.714Z,91.84
2016-10-07T00:06:47.391Z,91.94
2016-10-07T00:07:46.477Z,92.13
2016-10-07T00:08:46.758Z,92.22
2016-10-07T00:09:46.854Z,91.94
2016-10-07T00:10:47.026Z,91.74
2016-10-07T00:11:46.862Z,92.22
2016-10-07T00:12:46.851Z,92.22
2016-10-07T00:13:46.502Z,92.03
2016-10-07T00:14:46.833Z,92.22
2016-10-07T00:15:46.739Z,91.74
2016-10-07T00:16:46.888Z,92.22
2016-10-07T00:17:46.688Z,91.74
2016-10-07T00:18:46.770Z,91.94
2016-10-07T00:19:47.368Z,91.84
2016-10-07T00:20:47.207Z,91.94
2016-10-07T00:21:47.231Z,92.22
2016-10-07T00:22:46.651Z,92.13
2016-10-07T00:23:46.502Z,92.13
2016-10-07T00:24:47.239Z,92.03
2016-10-07T00:25:46.552Z,92.5
2016-10-07T00:26:46.916Z,92.32
2016-10-07T00:27:46.765Z,92.69
2016-10-07T00:28:46.576Z,92.5
2016-10-07T00:29:47.189Z,92.69
2016-10-07T00:30:47.416Z,92.5
2016-10-07T00:31:47.431Z,92.41
2016-10-07T00:32:47.045Z,92.41
2016-10-07T00:33:47.132Z,92.69
2016-10-07T00:34:47.616Z,92.89
2016-10-07T00:35:47.718Z,92.41
2016-10-07T00:36:47.010Z,92.69
2016-10-07T00:37:47.967Z,92.6
2016-10-07T00:38:47.160Z,93.17
2016-10-07T00:39:47.511Z,92.79
2016-10-07T00:40:47.252Z,92.79
2016-10-07T00:41:47.247Z,93.27
2016-10-07T00:42:47.060Z,92.98
2016-10-07T00:43:46.917Z,92.79
2016-10-07T00:44:47.221Z,92.79
2016-10-07T00:45:48.280Z,92.79
2016-10-07T00:46:47.379Z,92.79
2016-10-07T00:47:47.643Z,92.89
2016-10-07T00:48:46.979Z,93.08
2016-10-07T00:49:47.348Z,92.98
2016-10-07T00:50:47.751Z,93.27
2016-10-07T00:51:47.422Z,92.89
2016-10-07T00:52:47.611Z,92.89
2016-10-07T00:53:47.703Z,92.79
2016-10-07T00:54:47.575Z,92.98
2016-10-07T00:55:47.278Z,93.27
2016-10-07T00:56:47.242Z,93.27
2016-10-07T00:57:47.336Z,93.08
2016-10-07T00:58:47.330Z,92.98
2016-10-07T00:59:48.398Z,92.79
2016-10-07T01:00:47.718Z,92.89
2016-10-07T01:01:47.443Z,92.89
2016-10-07T01:02:47.506Z,93.27
2016-10-07T01:03:47.865Z,93.74
2016-10-07T01:04:47.456Z,93.17
2016-10-07T01:05:47.592Z,93.08
2016-10-07T01:06:47.791Z,93.08
2016-10-07T01:07:48.172Z,93.08
2016-10-07T01:08:47.422Z,92.89
2016-10-07T01:09:48.221Z,93.27
2016-10-07T01:10:47.779Z,93.08
2016-10-07T01:11:47.796Z,92.98
2016-10-07T01:12:48.865Z,93.08
2016-10-07T01:13:48.010Z,92.89
2016-10-07T01:14:47.533Z,92.69
2016-10-07T01:15:47.902Z,92.89
2016-10-07T01:16:47.870Z,92.89
2016-10-07T01:17:48.003Z,93.08
2016-10-07T01:18:47.698Z,93.17
2016-10-07T01:19:48.258Z,93.08
2016-10-07T01:20:48.476Z,93.46
2016-10-07T01:21:48.115Z,93.27
2016-10-07T01:22:47.961Z,92.98
2016-10-07T01:23:49.111Z,92.98
2016-10-07T01:24:48.153Z,92.79
2016-10-07T01:25:48.195Z,92.79
2016-10-07T01:26:47.711Z,92.98
2016-10-07T01:27:48.445Z,92.79
2016-10-07T01:28:48.117Z,93.17
2016-10-07T01:29:48.374Z,93.17
2016-10-07T01:30:48.074Z,92.98
2016-10-07T01:31:48.549Z,92.98
2016-10-07T01:32:48.372Z,92.89
2016-10-07T01:33:48.005Z,92.98
2016-10-07T01:34:48.677Z,93.27
2016-10-07T01:35:48.879Z,93.08
2016-10-07T01:36:48.293Z,93.37
2016-10-07T01:37:47.924Z,92.98
2016-10-07T01:38:47.943Z,92.98
2016-10-07T01:39:48.829Z,93.08
2016-10-07T01:40:48.197Z,92.98
2016-10-07T01:41:48.235Z,92.5
2016-10-07T01:42:48.256Z,92.69
2016-10-07T01:43:48.084Z,92.89
2016-10-07T01:44:48.650Z,92.69
2016-10-07T01:45:48.085Z,92.89
2016-10-07T01:46:48.831Z,92.6
2016-10-07T01:47:48.422Z,92.89
2016-10-07T01:48:48.815Z,92.89
2016-10-07T01:49:49.813Z,92.89
2016-10-07T01:50:48.477Z,92.69
2016-10-07T01:51:48.577Z,92.6
2016-10-07T01:52:49.167Z,92.69
2016-10-07T01:53:48.698Z,92.79
2016-10-07T01:54:49.097Z,92.79
2016-10-07T01:55:48.224Z,92.5
2016-10-07T01:56:48.975Z,92.69
2016-10-07T01:57:49.018Z,92.5
2016-10-07T01:58:49.010Z,92.5
2016-10-07T01:59:48.566Z,92.13
2016-10-07T02:00:48.412Z,91.94
2016-10-07T02:01:48.760Z,91.94
2016-10-07T02:02:48.636Z,92.22
2016-10-07T02:03:48.398Z,92.22
2016-10-07T02:04:48.666Z,92.13
2016-10-07T02:05:48.619Z,92.03
2016-10-07T02:06:49.154Z,91.84
2016-10-07T02:07:49.020Z,92.03
2016-10-07T02:08:49.428Z,92.22
2016-10-07T02:09:48.484Z,91.84
2016-10-07T02:10:48.835Z,92.03
2016-10-07T02:11:48.910Z,92.03
2016-10-07T02:12:48.931Z,91.84
2016-10-07T02:13:48.773Z,91.84
2016-10-07T02:14:49.571Z,91.84
2016-10-07T02:15:48.915Z,91.84
2016-10-07T02:16:49.103Z,92.22
2016-10-07T02:17:50.125Z,92.03
2016-10-07T02:18:49.404Z,92.22
2016-10-07T02:19:49.223Z,91.94
2016-10-07T02:20:49.609Z,92.03
2016-10-07T02:21:49.663Z,92.32
2016-10-07T02:22:49.639Z,92.32
2016-10-07T02:23:49.009Z,92.79
2016-10-07T02:24:50.368Z,92.69
2016-10-07T02:25:49.009Z,92.5
2016-10-07T02:26:49.723Z,92.5
2016-10-07T02:27:50.102Z,92.69
2016-10-07T02:28:50.093Z,92.6
2016-10-07T02:29:49.481Z,92.69
2016-10-07T02:30:49.754Z,92.79
2016-10-07T02:31:49.735Z,92.69
2016-10-07T02:32:48.970Z,92.69
2016-10-07T02:33:49.176Z,92.69
2016-10-07T02:34:49.242Z,92.5
2016-10-07T02:35:49.439Z,92.69
2016-10-07T02:36:48.942Z,92.69
2016-10-07T02:37:48.926Z,92.69
2016-10-07T02:38:49.155Z,92.69
2016-10-07T02:39:49.590Z,92.98
2016-10-07T02:40:49.687Z,92.5
2016-10-07T02:41:52.670Z,92.79
2016-10-07T02:42:49.503Z,91.94
2016-10-07T02:43:49.634Z,91.84
2016-10-07T02:44:49.977Z,92.5
2016-10-07T02:45:49.365Z,92.13
2016-10-07T02:46:49.561Z,92.22
2016-10-07T02:47:49.226Z,92.03
2016-10-07T02:48:49.586Z,91.94
2016-10-07T02:49:49.952Z,92.03
2016-10-07T02:50:49.703Z,91.94
2016-10-07T02:51:50.574Z,92.22
2016-10-07T02:52:50.034Z,91.94
2016-10-07T02:53:50.124Z,91.84
2016-10-07T02:54:50.095Z,92.03
2016-10-07T02:55:49.728Z,91.84
2016-10-07T02:56:49.679Z,91.94
2016-10-07T02:57:50.099Z,92.03
2016-10-07T02:58:50.004Z,91.94
2016-10-07T02:59:49.694Z,92.22
2016-10-07T03:00:50.386Z,91.84
2016-10-07T03:01:49.678Z,92.03
2016-10-07T03:02:49.683Z,92.13
2016-10-07T03:03:51.384Z,91.84
2016-10-07T03:04:49.920Z,92.03
2016-10-07T03:05:49.535Z,92.6
2016-10-07T03:06:50.378Z,92.5
2016-10-07T03:07:50.456Z,92.69
2016-10-07T03:08:50.002Z,92.41
2016-10-07T03:09:49.788Z,92.41
2016-10-07T03:10:49.905Z,92.41
2016-10-07T03:11:49.569Z,92.69
2016-10-07T03:12:50.096Z,92.5
2016-10-07T03:13:50.365Z,92.5
2016-10-07T03:14:50.118Z,92.32
2016-10-07T03:15:50.747Z,92.5
2016-10-07T03:16:50.516Z,92.41
2016-10-07T03:17:50.242Z,92.79
2016-10-07T03:18:51.143Z,92.6
2016-10-07T03:19:50.657Z,92.41
2016-10-07T03:20:50.451Z,92.89
2016-10-07T03:21:51.201Z,92.41
2016-10-07T03:22:50.018Z,92.89
2016-10-07T03:23:49.868Z,92.98
2016-10-07T03:24:50.352Z,92.89
2016-10-07T03:25:50.213Z,92.79
2016-10-07T03:26:50.558Z,92.89
2016-10-07T03:27:50.070Z,92.41
2016-10-07T03:28:50.248Z,92.5
2016-10-07T03:29:49.904Z,92.79
2016-10-07T03:30:51.294Z,93.17
2016-10-07T03:31:50.279Z,93.37
2016-10-07T03:32:50.623Z,93.08
2016-10-07T03:33:51.190Z,93.08
2016-10-07T03:34:50.345Z,93.03
2016-10-07T03:35:51.137Z,92.98
2016-10-07T03:36:51.263Z,93.17
2016-10-07T03:37:50.648Z,92.98
2016-10-07T03:38:51.132Z,93.08
2016-10-07T03:39:50.971Z,92.98
2016-10-07T03:40:50.607Z,92.98
2016-10-07T03:41:51.460Z,92.98
2016-10-07T03:42:50.756Z,92.79
2016-10-07T03:43:50.211Z,92.98
2016-10-07T03:44:50.579Z,92.98
2016-10-07T03:45:50.234Z,93.27
2016-10-07T03:46:50.160Z,92.89
2016-10-07T03:47:51.456Z,93.17
2016-10-07T03:48:50.148Z,93.03
2016-10-07T03:49:50.504Z,93.03
2016-10-07T03:50:50.276Z,92.98
2016-10-07T03:51:51.255Z,93.27
2016-10-07T03:52:51.080Z,93.08
2016-10-07T03:53:50.548Z,93.46
2016-10-07T03:54:51.144Z,92.98
2016-10-07T03:55:51.652Z,93.37
2016-10-07T03:56:50.698Z,92.94
2016-10-07T03:57:51.126Z,93.41
2016-10-07T03:58:51.167Z,93.17
2016-10-07T03:59:50.921Z,93.37
2016-10-07T04:00:50.983Z,93.65
2016-10-07T04:01:51.381Z,93.46
2016-10-07T04:02:51.530Z,93.37
2016-10-07T04:03:50.414Z,93.08
2016-10-07T04:04:52.517Z,93.37
2016-10-07T04:05:51.397Z,93.27
2016-10-07T04:06:51.299Z,93.27
2016-10-07T04:07:51.500Z,93.74
2016-10-07T04:08:51.889Z,93.74
2016-10-07T04:09:50.839Z,93.27
2016-10-07T04:10:51.493Z,93.46
2016-10-07T04:11:51.459Z,93.17
2016-10-07T04:12:51.502Z,93.41
2016-10-07T04:13:51.464Z,93.93
2016-10-07T04:14:52.048Z,93.65
2016-10-07T04:15:51.677Z,93.74
2016-10-07T04:16:51.229Z,93.6
2016-10-07T04:17:51.590Z,93.74
2016-10-07T04:18:52.443Z,93.6
2016-10-07T04:19:51.311Z,93.74
2016-10-07T04:20:50.868Z,93.17
2016-10-07T04:21:52.985Z,93.32
2016-10-07T04:22:51.741Z,93.27
2016-10-07T04:23:52.286Z,93.37
2016-10-07T04:24:51.858Z,93.37
2016-10-07T04:25:51.265Z,93.46
2016-10-07T04:26:51.545Z,93.55
2016-10-07T04:27:51.149Z,93.46
2016-10-07T04:28:51.522Z,93.37
2016-10-07T04:29:52.231Z,93.46
2016-10-07T04:30:52.468Z,93.08
2016-10-07T04:31:51.660Z,93.17
2016-10-07T04:32:51.303Z,93.41
2016-10-07T04:33:52.268Z,93.46
2016-10-07T04:34:51.806Z,93.27
2016-10-07T04:35:52.472Z,92.98
2016-10-07T04:36:51.572Z,93.55
2016-10-07T04:37:52.287Z,93.46
2016-10-07T04:38:52.173Z,93.46
2016-10-07T04:39:51.984Z,93.46
2016-10-07T04:40:51.422Z,93.46
2016-10-07T04:41:51.396Z,93.27
2016-10-07T04:42:52.849Z,93.37
2016-10-07T04:43:52.043Z,93.32
2016-10-07T04:44:51.675Z,93.37
2016-10-07T04:45:51.901Z,93.41
2016-10-07T04:46:52.959Z,93.13
2016-10-07T04:47:51.747Z,93.65
2016-10-07T04:48:52.247Z,93.46
2016-10-07T04:49:51.270Z,93.74
2016-10-07T04:50:51.455Z,93.74
2016-10-07T04:51:53.169Z,94.13
2016-10-07T04:52:51.760Z,94.03
2016-10-07T04:53:52.733Z,93.6
2016-10-07T04:54:51.566Z,93.6
2016-10-07T04:55:51.808Z,93.7
2016-10-07T04:56:53.184Z,94.13
2016-10-07T04:57:52.342Z,94.17
2016-10-07T04:58:52.174Z,94.08
2016-10-07T04:59:52.321Z,93.6
2016-10-07T05:00:52.196Z,94.27
2016-10-07T05:01:53.012Z,94.08
2016-10-07T05:02:52.279Z,94.27
2016-10-07T05:03:52.022Z,94.65
2016-10-07T05:04:52.263Z,94.74
2016-10-07T05:05:52.665Z,94.84
2016-10-07T05:06:51.945Z,94.56
2016-10-07T05:07:52.965Z,94.27
2016-10-07T05:08:52.093Z,94.84
2016-10-07T05:09:52.090Z,95.12
2016-10-07T05:10:52.085Z,95.03
2016-10-07T05:11:52.423Z,95.12
2016-10-07T05:12:51.967Z,95.22
2016-10-07T05:13:52.617Z,95.22
2016-10-07T05:14:52.206Z,95.41
2016-10-07T05:15:52.168Z,95.7
2016-10-07T05:16:51.957Z,95.89
2016-10-07T05:17:52.285Z,95.6
2016-10-07T05:18:53.005Z,95.89
2016-10-07T05:19:52.620Z,95.41
2016-10-07T05:20:53.140Z,95.51
2016-10-07T05:21:52.580Z,95.32
2016-10-07T05:22:52.751Z,95.79
2016-10-07T05:23:52.717Z,95.32
2016-10-07T05:24:52.059Z,95.22
2016-10-07T05:25:52.153Z,95.32
2016-10-07T05:26:51.689Z,95.89
2016-10-07T05:27:51.755Z,96.08
2016-10-07T05:28:51.710Z,95.7
2016-10-07T05:29:52.908Z,95.7
2016-10-07T05:30:52.156Z,95.89
2016-10-07T05:31:52.326Z,95.7
2016-10-07T05:32:52.043Z,95.51
2016-10-07T05:33:52.611Z,95.51
2016-10-07T05:34:51.841Z,95.6
2016-10-07T05:35:52.823Z,95.79
2016-10-07T05:36:53.488Z,95.51
2016-10-07T05:37:52.948Z,95.7
2016-10-07T05:38:54.089Z,95.6
2016-10-07T05:39:53.598Z,96.55
2016-10-07T05:40:52.697Z,96.27
2016-10-07T05:41:52.939Z,95.98
2016-10-07T05:42:53.197Z,96.17
2016-10-07T05:43:53.086Z,95.98
2016-10-07T05:44:52.737Z,96.36
2016-10-07T05:45:52.736Z,96.27
2016-10-07T05:46:53.026Z,96.27
2016-10-07T05:47:52.994Z,95.98
2016-10-07T05:48:52.727Z,96.08
2016-10-07T05:49:53.366Z,96.65
2016-10-07T05:50:52.672Z,96.75
2016-10-07T05:51:52.881Z,96.46
2016-10-07T05:52:52.563Z,96.65
2016-10-07T05:53:52.994Z,96.65
2016-10-07T05:54:53.973Z,96.46
2016-10-07T05:55:53.157Z,96.46
2016-10-07T05:56:53.076Z,96.46
2016-10-07T05:57:52.783Z,96.46
2016-10-07T05:58:53.158Z,96.55
2016-10-07T05:59:53.560Z,96.94
2016-10-07T06:00:53.608Z,96.94
2016-10-07T06:01:52.858Z,96.46
2016-10-07T06:02:53.729Z,96.46
2016-10-07T06:03:53.516Z,97.03
2016-10-07T06:04:53.157Z,97.22
2016-10-07T06:05:53.323Z,97.03
2016-10-07T06:06:53.462Z,96.75
2016-10-07T06:07:53.652Z,97.22
2016-10-07T06:08:53.370Z,96.55
2016-10-07T06:09:54.278Z,96.46
2016-10-07T06:10:53.529Z,95.98
2016-10-07T06:11:53.729Z,96.17
2016-10-07T06:12:53.364Z,96.36
2016-10-07T06:13:53.202Z,96.32
2016-10-07T06:14:53.303Z,96.27
2016-10-07T06:15:53.222Z,96.27
2016-10-07T06:16:53.092Z,96.12
2016-10-07T06:17:53.048Z,96.03
2016-10-07T06:18:53.508Z,96.03
2016-10-07T06:19:53.377Z,96.12
2016-10-07T06:20:54.143Z,96.32
2016-10-07T06:21:54.808Z,95.75
2016-10-07T06:22:54.390Z,95.65
2016-10-07T06:23:54.084Z,96.12
2016-10-07T06:24:54.085Z,95.94
2016-10-07T06:25:53.447Z,95.65
2016-10-07T06:26:53.376Z,95.56
2016-10-07T06:27:53.245Z,96.03
2016-10-07T06:28:54.110Z,96.03
2016-10-07T06:29:53.841Z,95.94
2016-10-07T06:30:54.061Z,95.27
2016-10-07T06:31:53.748Z,95.75
2016-10-07T06:32:53.718Z,95.27
2016-10-07T06:33:53.780Z,95.36
2016-10-07T06:34:54.474Z,95.46
2016-10-07T06:35:54.002Z,95.17
2016-10-07T06:36:54.467Z,95.17
2016-10-07T06:37:54.074Z,95.27
2016-10-07T06:38:54.247Z,94.7
2016-10-07T06:39:54.010Z,94.22
2016-10-07T06:40:53.897Z,93.93
2016-10-07T06:41:53.559Z,93.84
2016-10-07T06:42:54.270Z,93.37
2016-10-07T06:43:53.649Z,93.17
2016-10-07T06:44:54.202Z,93.17
2016-10-07T06:45:53.860Z,92.98
2016-10-07T06:46:54.257Z,92.98
2016-10-07T06:47:55.147Z,92.5
2016-10-07T06:48:55.276Z,92.98
2016-10-07T06:49:54.562Z,92.6
2016-10-07T06:50:54.563Z,92.5
2016-10-07T06:51:54.041Z,92.22
2016-10-07T06:52:54.015Z,92.13
2016-10-07T06:53:54.593Z,91.46
2016-10-07T06:54:53.656Z,91.84
2016-10-07T06:55:54.677Z,91.84
2016-10-07T06:56:55.006Z,91.46
2016-10-07T06:57:53.926Z,91.27
2016-10-07T06:58:54.446Z,91.5
2016-10-07T06:59:54.793Z,91.69
2016-10-07T07:00:54.992Z,91.65
2016-10-07T07:01:54.486Z,91.88
2016-10-07T07:02:54.298Z,91.88
2016-10-07T07:03:54.800Z,91.6
2016-10-07T07:04:54.678Z,91.79
2016-10-07T07:05:54.758Z,91.6
2016-10-07T07:06:53.998Z,91.41
2016-10-07T07:07:55.066Z,91.69
2016-10-07T07:08:54.782Z,91.69
2016-10-07T07:09:54.433Z,91.5
2016-10-07T07:10:54.682Z,91.22
2016-10-07T07:11:54.424Z,90.93
2016-10-07T07:12:54.775Z,91.03
2016-10-07T07:13:54.897Z,90.74
2016-10-07T07:14:54.584Z,90.64
2016-10-07T07:15:54.331Z,90.98
2016-10-07T07:16:54.208Z,91.17
2016-10-07T07:17:54.690Z,90.59
2016-10-07T07:18:54.628Z,90.69
2016-10-07T07:19:54.702Z,90.69
2016-10-07T07:20:54.685Z,90.69
2016-10-07T07:21:54.771Z,90.88
2016-10-07T07:22:54.522Z,91.17
2016-10-07T07:23:54.462Z,90.88
2016-10-07T07:24:55.476Z,90.79
2016-10-07T07:25:54.734Z,90.69
2016-10-07T07:26:54.586Z,90.41
2016-10-07T07:27:54.941Z,90.12
2016-10-07T07:28:55.556Z,90.41
2016-10-07T07:29:54.411Z,90.31
2016-10-07T07:30:55.581Z,90.59
2016-10-07T07:31:54.709Z,90.12
2016-10-07T07:32:54.731Z,89.74
2016-10-07T07:33:55.246Z,90.79
2016-10-07T07:34:55.449Z,90.41
2016-10-07T07:35:56.365Z,90.22
2016-10-07T07:36:55.619Z,90.5
2016-10-07T07:37:56.532Z,90.41
2016-10-07T07:38:54.698Z,89.74
2016-10-07T07:39:55.705Z,89.54
2016-10-07T07:40:54.708Z,89.54
2016-10-07T07:41:55.030Z,89.74
2016-10-07T07:42:55.062Z,90.03
2016-10-07T07:43:55.476Z,89.36
2016-10-07T07:44:55.475Z,90.03
2016-10-07T07:45:55.179Z,89.26
2016-10-07T07:46:54.824Z,89.17
2016-10-07T07:47:55.339Z,89.54
2016-10-07T07:48:55.369Z,89.36
2016-10-07T07:49:55.280Z,89.93
2016-10-07T07:50:57.056Z,89.26
2016-10-07T07:51:55.394Z,88.98
2016-10-07T07:52:55.487Z,89.74
2016-10-07T07:53:55.730Z,89.26
2016-10-07T07:54:56.166Z,89.17
2016-10-07T07:55:55.707Z,88.98
2016-10-07T07:56:55.077Z,89.07
2016-10-07T07:57:55.182Z,88.78
2016-10-07T07:58:56.462Z,89.17
2016-10-07T07:59:55.282Z,89.36
2016-10-07T08:00:55.419Z,89.17
2016-10-07T08:01:55.079Z,89.07
2016-10-07T08:02:55.645Z,88.69
2016-10-07T08:03:56.174Z,88.69
2016-10-07T08:04:56.166Z,88.98
2016-10-07T08:05:55.255Z,89.17
2016-10-07T08:06:55.362Z,88.12
2016-10-07T08:07:55.964Z,88.21
2016-10-07T08:08:55.381Z,88.88
2016-10-07T08:09:55.724Z,88.31
2016-10-07T08:10:55.400Z,88.21
2016-10-07T08:11:55.536Z,87.83
2016-10-07T08:12:56.150Z,87.83
2016-10-07T08:13:55.294Z,88.78
2016-10-07T08:14:56.505Z,88.4
2016-10-07T08:15:55.592Z,88.69
2016-10-07T08:16:55.479Z,88.4
2016-10-07T08:17:56.181Z,88.02
2016-10-07T08:18:56.023Z,87.83
2016-10-07T08:19:55.658Z,88.12
2016-10-07T08:20:56.205Z,88.21
2016-10-07T08:21:56.480Z,88.31
2016-10-07T08:22:55.794Z,87.64
2016-10-07T08:23:56.257Z,87.83
2016-10-07T08:24:55.866Z,88.02
2016-10-07T08:25:56.232Z,88.4
2016-10-07T08:26:55.924Z,88.12
2016-10-07T08:27:56.187Z,87.83
2016-10-07T08:28:56.188Z,88.21
2016-10-07T08:29:56.084Z,87.74
2016-10-07T08:30:56.129Z,87.83
2016-10-07T08:31:55.688Z,88.59
2016-10-07T08:32:56.076Z,88.59
2016-10-07T08:33:55.925Z,87.93
2016-10-07T08:34:56.316Z,88.45
2016-10-07T08:35:55.897Z,88.83
2016-10-07T08:36:55.933Z,88.35
2016-10-07T08:37:55.879Z,88.45
2016-10-07T08:38:56.039Z,88.26
2016-10-07T08:39:56.486Z,88.16
2016-10-07T08:40:56.534Z,89.02
2016-10-07T08:41:56.717Z,87.59
2016-10-07T08:42:55.952Z,88.54
2016-10-07T08:43:56.928Z,87.3
2016-10-07T08:44:56.384Z,87.3
2016-10-07T08:45:56.232Z,87.21
2016-10-07T08:46:56.198Z,88.07
2016-10-07T08:47:56.606Z,87.4
2016-10-07T08:48:56.474Z,86.63
2016-10-07T08:49:56.041Z,87.02
2016-10-07T08:50:55.909Z,87.21
2016-10-07T08:51:56.350Z,87.3
2016-10-07T08:52:56.690Z,86.63
2016-10-07T08:53:55.917Z,87.49
2016-10-07T08:54:56.313Z,87.3
2016-10-07T08:55:56.695Z,87.3
2016-10-07T08:56:56.014Z,87.11
2016-10-07T08:57:56.846Z,87.49
2016-10-07T08:58:56.753Z,87.21
2016-10-07T08:59:56.724Z,87.63
2016-10-07T09:00:56.464Z,87.02
2016-10-07T09:01:56.437Z,87.59
2016-10-07T09:02:56.551Z,87.35
2016-10-07T09:03:56.698Z,87.15
2016-10-07T09:04:56.295Z,86.68
2016-10-07T09:05:56.331Z,86.73
2016-10-07T09:06:56.771Z,88.07
2016-10-07T09:07:57.289Z,86.77
2016-10-07T09:08:56.418Z,86.54
2016-10-07T09:09:57.719Z,86.73
2016-10-07T09:10:57.300Z,87.02
2016-10-07T09:11:56.893Z,86.35
2016-10-07T09:12:56.709Z,87.35
2016-10-07T09:13:56.697Z,87.92
2016-10-07T09:14:57.275Z,86.96
2016-10-07T09:15:57.233Z,87.63
2016-10-07T09:16:57.015Z,86.96
2016-10-07T09:17:56.813Z,87.06
2016-10-07T09:18:56.926Z,87.25
2016-10-07T09:19:57.302Z,87.35
2016-10-07T09:20:57.604Z,86.87
2016-10-07T09:21:57.522Z,87.25
2016-10-07T09:22:57.435Z,87.25
2016-10-07T09:23:56.562Z,87.54
2016-10-07T09:24:57.007Z,86.58
2016-10-07T09:25:56.545Z,86.3
2016-10-07T09:26:56.973Z,87.35
2016-10-07T09:27:56.951Z,87.35
2016-10-07T09:28:56.900Z,88.11
2016-10-07T09:29:57.190Z,87.06
2016-10-07T09:30:57.313Z,88.2
2016-10-07T09:31:57.029Z,86.3
2016-10-07T09:32:57.190Z,87.15
2016-10-07T09:33:56.851Z,87.35
2016-10-07T09:34:56.964Z,86.58
2016-10-07T09:35:57.592Z,86.77
2016-10-07T09:36:57.337Z,86.3
2016-10-07T09:37:57.430Z,86.87
2016-10-07T09:38:57.992Z,86.1
2016-10-07T09:39:57.038Z,86.1
2016-10-07T09:40:57.119Z,86.39
2016-10-07T09:41:57.036Z,86.87
2016-10-07T09:42:57.028Z,87.06
2016-10-07T09:43:57.388Z,85.91
2016-10-07T09:44:57.554Z,86.39
2016-10-07T09:45:57.913Z,86.87
2016-10-07T09:46:57.288Z,87.15
2016-10-07T09:47:57.478Z,87.54
2016-10-07T09:48:57.478Z,87.44
2016-10-07T09:49:57.915Z,86.68
2016-10-07T09:50:57.863Z,86.96
2016-10-07T09:51:57.441Z,86.77
2016-10-07T09:52:57.228Z,86.68
2016-10-07T09:53:57.171Z,85.63
2016-10-07T09:54:58.252Z,85.91
2016-10-07T09:55:57.450Z,85.25
2016-10-07T09:56:57.494Z,86.77
2016-10-07T09:57:57.706Z,85.72
2016-10-07T09:58:57.761Z,85.34
2016-10-07T09:59:57.618Z,86.2
2016-10-07T10:00:57.387Z,85.91
2016-10-07T10:01:58.520Z,86.49
2016-10-07T10:02:58.307Z,87.06
2016-10-07T10:03:57.795Z,86.01
2016-10-07T10:04:58.501Z,86.1
2016-10-07T10:05:57.977Z,85.91
2016-10-07T10:06:58.214Z,86.77
2016-10-07T10:07:58.574Z,86.49
2016-10-07T10:08:58.265Z,85.44
2016-10-07T10:09:57.781Z,85.91
2016-10-07T10:10:58.007Z,85.15
2016-10-07T10:11:57.296Z,85.15
2016-10-07T10:12:58.039Z,85.72
2016-10-07T10:13:58.840Z,86.01
2016-10-07T10:14:58.119Z,86.01
2016-10-07T10:15:58.422Z,84.33
2016-10-07T10:16:58.044Z,85.44
2016-10-07T10:17:57.630Z,86.39
2016-10-07T10:18:58.275Z,86.1
2016-10-07T10:19:58.137Z,85.72
2016-10-07T10:20:57.966Z,86.01
2016-10-07T10:21:58.304Z,85.25
2016-10-07T10:22:58.580Z,85.91
2016-10-07T10:23:58.694Z,86.3
2016-10-07T10:24:57.926Z,84.86
2016-10-07T10:25:58.051Z,85.72
2016-10-07T10:26:58.312Z,85.72
2016-10-07T10:27:58.055Z,85.53
2016-10-07T10:28:58.620Z,85.34
2016-10-07T10:29:58.604Z,84.2
2016-10-07T10:30:57.872Z,85.25
2016-10-07T10:31:59.252Z,86.1
2016-10-07T10:32:58.007Z,85.15
2016-10-07T10:33:58.264Z,85.44
2016-10-07T10:34:58.307Z,84.58
2016-10-07T10:35:58.519Z,84.48
2016-10-07T10:36:57.949Z,84.67
2016-10-07T10:37:59.082Z,85.91
2016-10-07T10:38:58.733Z,83.43
2016-10-07T10:39:58.697Z,85.15
2016-10-07T10:40:58.807Z,84.81
2016-10-07T10:41:58.539Z,85.86
2016-10-07T10:42:58.046Z,84.43
2016-10-07T10:43:58.805Z,83.09
2016-10-07T10:44:58.949Z,84.76
2016-10-07T10:45:58.353Z,83.67
2016-10-07T10:46:58.839Z,83.57
2016-10-07T10:47:59.298Z,83.47
2016-10-07T10:48:58.690Z,85.48
2016-10-07T10:49:58.382Z,83.67
2016-10-07T10:50:58.845Z,83.76
2016-10-07T10:51:59.399Z,84.52
2016-10-07T10:52:58.813Z,85.82
2016-10-07T10:54:00.214Z,84.48
2016-10-07T10:54:58.556Z,85.44
2016-10-07T10:55:59.188Z,85.15
2016-10-07T10:56:58.862Z,85.3
2016-10-07T10:57:59.483Z,85.21
2016-10-07T10:58:59.176Z,85.87
2016-10-07T10:59:58.564Z,85.97
2016-10-07T11:00:58.643Z,85.77
2016-10-07T11:01:58.760Z,86.06
2016-10-07T11:02:59.084Z,85.77
2016-10-07T11:03:58.539Z,86.35
2016-10-07T11:04:59.122Z,86.44
2016-10-07T11:05:59.196Z,86.06
2016-10-07T11:06:59.048Z,86.54
2016-10-07T11:07:59.020Z,85.87
2016-10-07T11:08:59.584Z,85.49
2016-10-07T11:09:59.706Z,85.49
2016-10-07T11:10:59.350Z,86.25
2016-10-07T11:11:59.881Z,87.02
2016-10-07T11:12:58.971Z,86.44
2016-10-07T11:13:59.252Z,85.21
2016-10-07T11:15:00.001Z,85.82
2016-10-07T11:15:59.356Z,85.87
2016-10-07T11:16:59.560Z,85.72
2016-10-07T11:17:59.051Z,87.06
2016-10-07T11:18:59.446Z,85.91
2016-10-07T11:19:59.169Z,87.25
2016-10-07T11:21:00.080Z,85.72
2016-10-07T11:21:59.909Z,85.44
2016-10-07T11:22:59.466Z,85.29
2016-10-07T11:24:00.193Z,86.34
2016-10-07T11:24:59.947Z,85.67
2016-10-07T11:25:59.605Z,85.77
2016-10-07T11:27:00.092Z,85.86
2016-10-07T11:27:59.112Z,84.81
2016-10-07T11:28:59.457Z,84.52
2016-10-07T11:29:59.083Z,85.29
2016-10-07T11:30:59.282Z,85.29
2016-10-07T11:31:59.404Z,84.62
2016-10-07T11:32:59.429Z,83.99
2016-10-07T11:33:59.789Z,84.56
2016-10-07T11:35:00.209Z,84.09
2016-10-07T11:35:59.801Z,84.03
2016-10-07T11:37:00.281Z,83.17
2016-10-07T11:37:59.315Z,82.89
2016-10-07T11:38:59.958Z,84.17
2016-10-07T11:39:59.786Z,80.58
2016-10-07T11:41:00.851Z,79.62
2016-10-07T11:42:00.085Z,82.49
2016-10-07T11:43:00.313Z,83.83
2016-10-07T11:43:59.452Z,80.06
2016-10-07T11:44:59.682Z,81.02
2016-10-07T11:45:59.410Z,81.11
2016-10-07T11:46:59.455Z,80.06
2016-10-07T11:48:00.397Z,81.4
2016-10-07T11:48:59.797Z,81.3
2016-10-07T11:50:00.166Z,79.49
2016-10-07T11:50:59.799Z,79.44
2016-10-07T11:51:59.730Z,81.16
2016-10-07T11:53:01.027Z,81.93
2016-10-07T11:53:59.764Z,82.12
2016-10-07T11:54:59.954Z,81.21
2016-10-07T11:56:00.105Z,81.4
2016-10-07T11:57:00.985Z,80.73
2016-10-07T11:58:00.331Z,79.33
2016-10-07T11:59:01.029Z,78.66
2016-10-07T11:59:59.994Z,80.44
2016-10-07T12:01:00.058Z,79.29
2016-10-07T12:02:00.704Z,80.11
2016-10-07T12:03:00.067Z,78.97
2016-10-07T12:04:00.802Z,79.64
2016-10-07T12:05:00.994Z,82.54
2016-10-07T12:06:01.474Z,79.68
2016-10-07T12:07:00.238Z,80.88
2016-10-07T12:07:59.844Z,81.45
2016-10-07T12:09:00.993Z,80.4
2016-10-07T12:10:00.435Z,81.68
2016-10-07T12:11:00.391Z,81.3
2016-10-07T12:12:00.367Z,81.02
2016-10-07T12:13:00.398Z,82.17
2016-10-07T12:14:00.579Z,81.59
2016-10-07T12:15:00.535Z,80.35
2016-10-07T12:16:00.930Z,79.64
2016-10-07T12:17:00.599Z,80.25
2016-10-07T12:18:00.948Z,79.96
2016-10-07T12:19:00.585Z,81.21
2016-10-07T12:20:00.835Z,80.44
2016-10-07T12:21:00.876Z,80.82
2016-10-07T12:22:00.326Z,80.82
2016-10-07T12:23:00.438Z,80.59
2016-10-07T12:24:01.163Z,80.02
2016-10-07T12:25:00.510Z,80.88
2016-10-07T12:26:01.608Z,80.84
2016-10-07T12:27:00.882Z,80.84
2016-10-07T12:28:00.440Z,81.6
2016-10-07T12:29:00.459Z,81.13
2016-10-07T12:30:00.771Z,80.46
2016-10-07T12:31:01.786Z,81.13
2016-10-07T12:32:01.182Z,81.37
2016-10-07T12:33:02.364Z,80.84
2016-10-07T12:34:01.347Z,82.14
2016-10-07T12:35:01.380Z,82.14
2016-10-07T12:36:01.640Z,81.89
2016-10-07T12:37:00.942Z,80.55
2016-10-07T12:38:00.934Z,80.36
2016-10-07T12:39:01.007Z,80.17
2016-10-07T12:40:00.712Z,79.93
2016-10-07T12:41:00.664Z,82.03
2016-10-07T12:42:00.851Z,81.84
2016-10-07T12:43:01.715Z,79.83
2016-10-07T12:44:01.260Z,79.35
2016-10-07T12:45:01.367Z,79.2
2016-10-07T12:46:00.848Z,80.73
2016-10-07T12:47:00.669Z,77.57
2016-10-07T12:48:01.574Z,76.57
2016-10-07T12:49:01.137Z,77.95
2016-10-07T12:50:02.317Z,79.49
2016-10-07T12:51:01.698Z,79
2016-10-07T12:52:01.779Z,78.05
2016-10-07T12:53:01.253Z,77.95
2016-10-07T12:54:01.356Z,77.28
2016-10-07T12:55:01.759Z,76.37
2016-10-07T12:56:01.132Z,78.95